createdAt,value
2018-12-26T00:01:27.450Z,6.70
2018-12-26T00:04:08.929Z,6.60
2018-12-26T00:06:50.195Z,6.60
2018-12-26T00:09:34.362Z,6.70
2018-12-26T00:12:15.554Z,6.70
2018-12-26T00:14:56.494Z,6.70
2018-12-26T00:17:37.460Z,6.70
2018-12-26T00:20:18.536Z,6.70
2018-12-26T00:22:59.454Z,6.70
2018-12-26T00:25:40.107Z,6.50
2018-12-26T00:28:22.566Z,6.80
2018-12-26T00:31:03.330Z,6.80
2018-12-26T00:33:46.332Z,6.80
2018-12-26T00:36:27.690Z,6.70
2018-12-26T00:39:09.008Z,6.80
2018-12-26T00:41:48.442Z,6.80
2018-12-26T00:44:29.684Z,6.80
2018-12-26T00:47:10.237Z,6.80
2018-12-26T00:49:51.024Z,6.70
2018-12-26T00:52:34.676Z,6.80
2018-12-26T00:55:16.278Z,6.80
2018-12-26T00:57:57.138Z,6.70
2018-12-26T01:00:43.972Z,6.80
2018-12-26T01:03:24.829Z,6.80
2018-12-26T01:06:05.982Z,6.80
2018-12-26T01:08:46.794Z,6.80
2018-12-26T01:11:27.735Z,6.80
2018-12-26T01:14:08.549Z,6.90
2018-12-26T01:16:49.624Z,6.90
2018-12-26T01:19:30.546Z,6.90
2018-12-26T01:22:12.034Z,6.90
2018-12-26T01:24:52.913Z,6.90
2018-12-26T01:27:34.218Z,6.90
2018-12-26T01:30:17.230Z,6.90
2018-12-26T01:32:57.907Z,6.90
2018-12-26T01:35:38.792Z,6.90
2018-12-26T01:38:20.547Z,6.70
2018-12-26T01:41:01.209Z,6.90
2018-12-26T01:46:02.201Z,6.90
2018-12-26T01:48:43.136Z,6.80
2018-12-26T01:51:24.165Z,6.80
2018-12-26T01:54:05.494Z,6.80
2018-12-26T01:56:46.135Z,6.80
2018-12-26T01:59:27.287Z,6.80
2018-12-26T02:02:08.964Z,6.80
2018-12-26T02:04:49.333Z,6.80
2018-12-26T02:07:30.135Z,6.80
2018-12-26T02:10:10.511Z,6.80
2018-12-26T02:12:51.729Z,6.80
2018-12-26T02:15:32.849Z,6.80
2018-12-26T02:18:13.512Z,6.80
2018-12-26T02:20:53.074Z,6.80
2018-12-26T02:23:41.238Z,6.80
2018-12-26T02:26:22.409Z,6.80
2018-12-26T02:29:03.401Z,6.80
2018-12-26T02:31:45.009Z,6.80
2018-12-26T02:34:30.636Z,6.80
2018-12-26T02:37:11.199Z,6.80
2018-12-26T02:39:51.817Z,6.80
2018-12-26T02:42:32.441Z,6.80
2018-12-26T02:45:13.209Z,6.80
2018-12-26T02:47:54.010Z,6.80
2018-12-26T02:50:34.771Z,6.80
2018-12-26T02:53:17.411Z,6.80
2018-12-26T02:55:58.511Z,6.80
2018-12-26T02:58:39.105Z,6.70
2018-12-26T03:01:19.575Z,6.80
2018-12-26T03:04:00.379Z,6.80
2018-12-26T03:06:41.029Z,6.80
2018-12-26T03:09:21.815Z,6.80
2018-12-26T03:12:02.631Z,6.70
2018-12-26T03:14:44.330Z,6.70
2018-12-26T03:17:25.766Z,6.70
2018-12-26T03:20:08.282Z,6.70
2018-12-26T03:22:49.148Z,6.70
2018-12-26T03:25:29.841Z,6.70
2018-12-26T03:28:11.498Z,6.70
2018-12-26T03:30:52.003Z,6.70
2018-12-26T03:33:39.128Z,6.70
2018-12-26T03:36:19.983Z,6.70
2018-12-26T03:39:01.126Z,6.70
2018-12-26T03:41:41.727Z,6.70
2018-12-26T03:44:23.076Z,6.70
2018-12-26T03:47:04.459Z,6.70
2018-12-26T03:49:45.310Z,6.70
2018-12-26T03:52:26.629Z,6.60
2018-12-26T03:55:07.256Z,6.70
2018-12-26T03:57:47.937Z,6.70
2018-12-26T04:00:28.535Z,6.70
2018-12-26T04:03:09.363Z,6.70
2018-12-26T04:05:50.678Z,6.70
2018-12-26T04:08:32.126Z,6.70
2018-12-26T04:11:12.889Z,6.70
2018-12-26T04:13:54.426Z,6.80
2018-12-26T04:16:35.177Z,6.70
2018-12-26T04:19:15.848Z,6.70
2018-12-26T04:21:58.872Z,6.70
2018-12-26T04:24:40.804Z,6.70
2018-12-26T04:27:22.213Z,6.80
2018-12-26T04:30:03.458Z,6.80
2018-12-26T04:32:44.108Z,6.80
2018-12-26T04:35:25.636Z,6.70
2018-12-26T04:38:06.835Z,6.70
2018-12-26T04:40:47.757Z,6.70
2018-12-26T04:43:27.084Z,6.70
2018-12-26T04:46:15.150Z,6.60
2018-12-26T04:48:56.288Z,6.70
2018-12-26T04:51:37.264Z,6.70
2018-12-26T04:54:18.660Z,6.70
2018-12-26T04:57:02.857Z,6.70
2018-12-26T04:59:44.037Z,6.60
2018-12-26T05:02:25.255Z,6.70
2018-12-26T05:05:06.455Z,6.60
2018-12-26T05:07:46.856Z,6.60
2018-12-26T05:10:28.019Z,6.60
2018-12-26T05:13:08.862Z,6.60
2018-12-26T05:15:50.156Z,6.60
2018-12-26T05:18:30.939Z,6.60
2018-12-26T05:21:11.925Z,6.60
2018-12-26T05:23:52.988Z,6.60
2018-12-26T05:26:33.674Z,6.60
2018-12-26T05:29:14.934Z,6.60
2018-12-26T05:31:55.721Z,6.60
2018-12-26T05:34:37.189Z,6.60
2018-12-26T05:37:17.739Z,6.30
2018-12-26T05:39:58.542Z,6.50
2018-12-26T05:42:39.332Z,6.50
2018-12-26T05:45:20.408Z,6.50
2018-12-26T05:48:01.497Z,6.50
2018-12-26T05:50:42.101Z,6.50
2018-12-26T05:53:22.811Z,6.40
2018-12-26T05:56:03.557Z,6.50
2018-12-26T05:58:44.589Z,6.50
2018-12-26T06:01:25.411Z,6.40
2018-12-26T06:04:06.192Z,6.40
2018-12-26T06:06:46.549Z,6.50
2018-12-26T06:09:27.331Z,6.30
2018-12-26T06:12:08.091Z,6.40
2018-12-26T06:14:49.241Z,6.30
2018-12-26T06:17:30.211Z,6.30
2018-12-26T06:20:11.083Z,6.30
2018-12-26T06:22:51.831Z,6.20
2018-12-26T06:25:35.834Z,6.10
2018-12-26T06:28:18.137Z,6.10
2018-12-26T06:30:59.003Z,6.10
2018-12-26T06:33:39.672Z,6.10
2018-12-26T06:36:20.548Z,6.10
2018-12-26T06:39:06.430Z,6.10
2018-12-26T06:41:49.164Z,6.10
2018-12-26T06:44:29.761Z,6.10
2018-12-26T06:47:10.801Z,6.10
2018-12-26T06:49:57.451Z,6.10
2018-12-26T06:52:38.493Z,6.10
2018-12-26T06:55:19.675Z,6.10
2018-12-26T06:58:02.531Z,6.00
2018-12-26T07:00:44.790Z,6.10
2018-12-26T07:03:26.136Z,6.00
2018-12-26T07:06:07.286Z,6.00
2018-12-26T07:08:47.791Z,5.90
2018-12-26T07:11:28.173Z,6.00
2018-12-26T07:14:09.152Z,6.00
2018-12-26T07:16:49.816Z,6.00
2018-12-26T07:19:30.582Z,6.00
2018-12-26T07:22:11.611Z,6.00
2018-12-26T07:24:52.358Z,6.00
2018-12-26T07:27:34.887Z,6.00
2018-12-26T07:30:16.100Z,6.00
2018-12-26T07:32:57.466Z,6.00
2018-12-26T07:35:37.846Z,6.00
2018-12-26T07:38:18.434Z,6.00
2018-12-26T07:40:59.118Z,6.00
2018-12-26T07:43:39.790Z,6.00
2018-12-26T07:46:20.835Z,6.20
2018-12-26T07:49:01.380Z,6.00
2018-12-26T07:51:41.807Z,5.70
2018-12-26T07:54:22.858Z,6.10
2018-12-26T07:57:06.514Z,6.10
2018-12-26T07:59:47.690Z,6.00
2018-12-26T08:02:28.579Z,6.00
2018-12-26T08:05:09.160Z,6.00
2018-12-26T08:07:50.104Z,6.00
2018-12-26T08:10:30.926Z,6.00
2018-12-26T08:13:11.938Z,6.00
2018-12-26T08:15:52.753Z,6.00
2018-12-26T08:18:33.642Z,6.00
2018-12-26T08:21:15.055Z,6.00
2018-12-26T08:23:56.586Z,6.00
2018-12-26T08:26:37.650Z,6.00
2018-12-26T08:29:18.404Z,6.00
2018-12-26T08:31:59.418Z,6.00
2018-12-26T08:34:40.105Z,6.00
2018-12-26T08:37:21.101Z,6.00
2018-12-26T08:40:02.195Z,6.00
2018-12-26T08:42:43.455Z,5.80
2018-12-26T08:45:24.237Z,6.00
2018-12-26T08:48:05.009Z,6.00
2018-12-26T08:50:45.909Z,6.00
2018-12-26T08:53:26.589Z,6.00
2018-12-26T08:58:56.113Z,5.90
2018-12-26T09:01:37.946Z,5.90
2018-12-26T09:04:19.575Z,5.90
2018-12-26T09:07:00.471Z,5.90
2018-12-26T09:09:41.220Z,5.90
2018-12-26T09:12:21.981Z,5.90
2018-12-26T09:15:02.823Z,5.90
2018-12-26T09:17:44.018Z,5.90
2018-12-26T09:20:27.350Z,5.80
2018-12-26T09:23:09.477Z,5.80
2018-12-26T09:25:50.344Z,5.90
2018-12-26T09:28:30.894Z,5.80
2018-12-26T09:31:11.367Z,5.80
2018-12-26T09:33:52.286Z,5.80
2018-12-26T09:36:42.178Z,5.80
2018-12-26T09:39:25.699Z,5.80
2018-12-26T09:42:09.506Z,5.80
2018-12-26T09:44:54.557Z,5.90
2018-12-26T09:47:35.516Z,5.80
2018-12-26T09:50:16.424Z,5.80
2018-12-26T09:52:56.987Z,5.90
2018-12-26T09:55:38.246Z,5.90
2018-12-26T09:58:19.396Z,5.90
2018-12-26T10:01:00.839Z,5.90
2018-12-26T10:03:41.602Z,6.00
2018-12-26T10:06:24.086Z,6.00
2018-12-26T10:09:05.201Z,6.00
2018-12-26T10:11:46.532Z,6.00
2018-12-26T10:14:27.009Z,6.00
2018-12-26T10:17:08.123Z,6.00
2018-12-26T10:19:50.260Z,6.00
2018-12-26T10:22:30.912Z,6.00
2018-12-26T10:25:11.424Z,6.00
2018-12-26T10:27:52.438Z,6.00
2018-12-26T10:30:35.932Z,5.90
2018-12-26T10:33:17.251Z,6.00
2018-12-26T10:35:57.708Z,6.00
2018-12-26T10:38:38.962Z,6.00
2018-12-26T10:41:21.830Z,6.00
2018-12-26T10:44:02.516Z,6.00
2018-12-26T10:46:43.054Z,6.00
2018-12-26T10:49:23.566Z,6.00
2018-12-26T10:52:07.894Z,6.00
2018-12-26T10:54:49.187Z,6.00
2018-12-26T10:57:30.359Z,6.00
2018-12-26T11:00:10.933Z,6.10
2018-12-26T11:02:51.366Z,6.10
2018-12-26T11:05:32.219Z,6.10
2018-12-26T11:08:12.705Z,6.00
2018-12-26T11:10:53.518Z,6.20
2018-12-26T11:13:34.264Z,6.20
2018-12-26T11:16:15.557Z,6.20
2018-12-26T11:18:57.482Z,6.20
2018-12-26T11:21:38.089Z,6.10
2018-12-26T11:24:18.983Z,6.10
2018-12-26T11:26:59.931Z,6.10
2018-12-26T11:32:24.932Z,6.10
2018-12-26T11:35:05.748Z,6.20
2018-12-26T11:37:46.460Z,6.20
2018-12-26T11:40:27.509Z,6.20
2018-12-26T11:43:09.026Z,6.20
2018-12-26T11:45:50.352Z,6.20
2018-12-26T11:48:20.644Z,6.20
2018-12-26T11:51:08.883Z,6.10
2018-12-26T11:53:56.945Z,6.10
2018-12-26T11:56:38.052Z,6.10
2018-12-26T11:59:27.005Z,6.10
2018-12-26T12:02:01.861Z,6.10
2018-12-26T12:04:43.097Z,6.10
2018-12-26T12:07:23.594Z,6.10
2018-12-26T12:10:05.936Z,6.10
2018-12-26T12:12:47.933Z,6.10
2018-12-26T12:15:29.351Z,6.00
2018-12-26T12:18:10.842Z,5.90
2018-12-26T12:20:54.024Z,6.10
2018-12-26T12:23:34.826Z,6.10
2018-12-26T12:26:16.572Z,6.10
2018-12-26T12:28:57.298Z,6.10
2018-12-26T12:31:39.421Z,6.10
2018-12-26T12:34:20.498Z,6.10
2018-12-26T12:37:01.421Z,6.10
2018-12-26T12:39:41.990Z,6.10
2018-12-26T12:42:22.578Z,6.10
2018-12-26T12:45:03.396Z,6.10
2018-12-26T12:47:43.898Z,6.10
2018-12-26T12:50:24.358Z,6.10
2018-12-26T12:53:04.834Z,6.10
2018-12-26T12:55:45.626Z,6.10
2018-12-26T12:58:26.378Z,6.20
2018-12-26T13:01:07.246Z,6.20
2018-12-26T13:03:47.768Z,6.20
2018-12-26T13:06:28.916Z,6.20
2018-12-26T13:09:09.542Z,6.20
2018-12-26T13:11:50.495Z,6.10
2018-12-26T13:14:30.891Z,6.20
2018-12-26T13:17:12.073Z,6.20
2018-12-26T13:19:52.880Z,6.20
2018-12-26T13:22:34.440Z,6.20
2018-12-26T13:25:15.287Z,6.20
2018-12-26T13:27:56.170Z,6.30
2018-12-26T13:30:36.822Z,6.30
2018-12-26T13:33:17.630Z,6.30
2018-12-26T13:35:58.674Z,6.20
2018-12-26T13:38:39.558Z,6.20
2018-12-26T13:41:19.851Z,6.20
2018-12-26T13:44:00.424Z,6.30
2018-12-26T13:46:43.890Z,6.30
2018-12-26T13:49:24.838Z,6.30
2018-12-26T13:52:05.768Z,6.30
2018-12-26T13:54:46.360Z,6.30
2018-12-26T13:57:27.163Z,6.30
2018-12-26T14:00:09.605Z,6.30
2018-12-26T14:02:54.330Z,6.30
2018-12-26T14:05:41.926Z,6.30
2018-12-26T14:08:22.483Z,6.40
2018-12-26T14:11:06.330Z,6.40
2018-12-26T14:13:47.204Z,6.30
2018-12-26T14:16:28.003Z,6.30
2018-12-26T14:19:08.414Z,6.30
2018-12-26T14:21:49.574Z,6.30
2018-12-26T14:24:30.287Z,6.40
2018-12-26T14:27:10.748Z,6.40
2018-12-26T14:29:51.698Z,6.30
2018-12-26T14:32:32.843Z,6.40
2018-12-26T14:35:13.441Z,6.30
2018-12-26T14:37:54.595Z,6.40
2018-12-26T14:40:35.665Z,6.40
2018-12-26T14:43:16.470Z,6.40
2018-12-26T14:45:57.515Z,6.40
2018-12-26T14:48:38.404Z,6.40
2018-12-26T14:51:26.365Z,6.40
2018-12-26T14:54:01.717Z,6.40
2018-12-26T14:56:42.804Z,6.40
2018-12-26T14:59:23.601Z,6.40
2018-12-26T15:02:04.447Z,6.50
2018-12-26T15:04:45.201Z,6.50
2018-12-26T15:07:26.313Z,6.50
2018-12-26T15:10:05.723Z,6.50
2018-12-26T15:12:46.431Z,6.50
2018-12-26T15:15:27.250Z,6.60
2018-12-26T15:18:08.249Z,6.60
2018-12-26T15:20:50.384Z,6.60
2018-12-26T15:23:31.568Z,6.50
2018-12-26T15:26:12.876Z,6.60
2018-12-26T15:28:53.644Z,6.60
2018-12-26T15:31:34.227Z,6.60
2018-12-26T15:34:15.158Z,6.60
2018-12-26T15:36:55.752Z,6.60
2018-12-26T15:39:36.536Z,6.60
2018-12-26T15:42:17.343Z,6.40
2018-12-26T15:44:57.939Z,6.60
2018-12-26T15:47:39.327Z,6.60
2018-12-26T15:50:20.107Z,6.60
2018-12-26T15:53:01.256Z,6.60
2018-12-26T15:55:42.048Z,6.60
2018-12-26T15:58:23.237Z,6.60
2018-12-26T16:01:04.765Z,6.60
2018-12-26T16:03:45.306Z,6.70
2018-12-26T16:06:25.890Z,6.50
2018-12-26T16:09:06.858Z,6.60
2018-12-26T16:11:47.629Z,6.60
2018-12-26T16:14:28.591Z,6.60
2018-12-26T16:17:11.858Z,6.60
2018-12-26T16:19:57.033Z,6.70
2018-12-26T16:22:39.613Z,6.70
2018-12-26T16:25:20.314Z,6.70
2018-12-26T16:28:00.940Z,6.70
2018-12-26T16:30:46.152Z,6.70
2018-12-26T16:33:25.166Z,6.80
2018-12-26T16:36:05.553Z,6.80
2018-12-26T16:38:46.027Z,6.80
2018-12-26T16:41:27.384Z,6.80
2018-12-26T16:44:08.007Z,6.80
2018-12-26T16:46:47.280Z,6.80
2018-12-26T16:49:28.167Z,6.80
2018-12-26T16:52:09.217Z,6.80
2018-12-26T16:54:49.752Z,6.90
2018-12-26T16:57:30.724Z,6.80
2018-12-26T17:00:12.100Z,6.90
2018-12-26T17:02:52.923Z,6.90
2018-12-26T17:05:33.341Z,6.90
2018-12-26T17:08:14.025Z,6.90
2018-12-26T17:10:54.968Z,7.00
2018-12-26T17:13:35.498Z,7.00
2018-12-26T17:16:16.760Z,7.00
2018-12-26T17:18:57.515Z,7.00
2018-12-26T17:21:40.152Z,7.00
2018-12-26T17:24:23.009Z,7.00
2018-12-26T17:27:03.856Z,7.00
2018-12-26T17:29:43.230Z,7.10
2018-12-26T17:32:31.530Z,7.00
2018-12-26T17:35:12.892Z,7.10
2018-12-26T17:37:53.400Z,7.10
2018-12-26T17:40:23.514Z,7.10
2018-12-26T17:43:11.806Z,7.10
2018-12-26T17:45:53.294Z,7.10
2018-12-26T17:48:34.356Z,7.10
2018-12-26T17:51:15.344Z,7.20
2018-12-26T17:53:56.030Z,7.30
2018-12-26T17:56:37.371Z,7.30
2018-12-26T17:59:18.235Z,7.30
2018-12-26T18:01:59.070Z,7.30
2018-12-26T18:04:39.812Z,7.30
2018-12-26T18:07:28.432Z,7.30
2018-12-26T18:10:12.849Z,7.30
2018-12-26T18:12:53.984Z,7.20
2018-12-26T18:15:33.086Z,7.30
2018-12-26T18:18:21.102Z,7.20
2018-12-26T18:21:02.138Z,7.20
2018-12-26T18:23:43.023Z,7.20
2018-12-26T18:26:23.909Z,7.20
2018-12-26T18:29:05.152Z,7.30
2018-12-26T18:31:46.239Z,7.30
2018-12-26T18:34:26.901Z,7.30
2018-12-26T18:37:07.985Z,7.30
2018-12-26T18:39:48.467Z,7.30
2018-12-26T18:42:29.297Z,7.30
2018-12-26T18:45:09.741Z,7.30
2018-12-26T18:47:50.494Z,7.00
2018-12-26T18:50:33.403Z,7.30
2018-12-26T18:53:14.456Z,7.30
2018-12-26T18:55:55.121Z,7.20
2018-12-26T18:58:35.776Z,7.20
2018-12-26T19:01:16.340Z,7.20
2018-12-26T19:03:57.062Z,7.20
2018-12-26T19:06:37.842Z,7.20
2018-12-26T19:09:18.342Z,7.10
2018-12-26T19:11:59.146Z,7.10
2018-12-26T19:14:40.456Z,7.20
2018-12-26T19:17:20.913Z,7.20
2018-12-26T19:20:01.849Z,7.20
2018-12-26T19:22:42.610Z,7.20
2018-12-26T19:25:23.227Z,7.10
2018-12-26T19:28:04.526Z,7.10
2018-12-26T19:30:45.466Z,7.10
2018-12-26T19:33:26.330Z,7.10
2018-12-26T19:36:07.117Z,7.10
2018-12-26T19:38:47.688Z,7.10
2018-12-26T19:41:28.566Z,7.10
2018-12-26T19:44:09.462Z,7.10
2018-12-26T19:46:50.146Z,7.20
2018-12-26T19:49:30.887Z,7.10
2018-12-26T19:52:11.760Z,7.20
2018-12-26T19:54:52.649Z,7.20
2018-12-26T19:57:33.545Z,7.20
2018-12-26T20:00:14.260Z,7.20
2018-12-26T20:02:55.206Z,7.20
2018-12-26T20:05:35.904Z,7.30
2018-12-26T20:08:19.059Z,7.30
2018-12-26T20:11:02.132Z,7.30
2018-12-26T20:13:42.646Z,7.30
2018-12-26T20:16:23.367Z,7.30
2018-12-26T20:19:04.235Z,7.30
2018-12-26T20:21:45.014Z,7.30
2018-12-26T20:24:25.797Z,7.30
2018-12-26T20:27:06.773Z,7.30
2018-12-26T20:29:48.138Z,7.30
2018-12-26T20:32:29.772Z,7.30
2018-12-26T20:35:10.819Z,7.30
2018-12-26T20:37:51.501Z,7.30
2018-12-26T20:40:32.078Z,7.30
2018-12-26T20:43:12.785Z,7.40
2018-12-26T20:45:54.206Z,7.40
2018-12-26T20:48:36.058Z,7.40
2018-12-26T20:51:17.453Z,7.40
2018-12-26T20:53:57.839Z,7.40
2018-12-26T20:56:38.290Z,7.40
2018-12-26T20:59:19.045Z,7.40
2018-12-26T21:02:05.602Z,7.50
2018-12-26T21:04:42.977Z,7.50
2018-12-26T21:07:23.479Z,7.50
2018-12-26T21:10:04.386Z,7.50
2018-12-26T21:12:45.428Z,7.50
2018-12-26T21:15:25.956Z,7.50
2018-12-26T21:18:07.188Z,7.50
2018-12-26T21:20:49.553Z,7.50
2018-12-26T21:23:30.430Z,7.50
2018-12-26T21:26:11.180Z,7.50
2018-12-26T21:28:51.678Z,7.50
2018-12-26T21:31:34.147Z,7.60
2018-12-26T21:34:15.620Z,7.60
2018-12-26T21:36:56.360Z,7.50
2018-12-26T21:39:37.298Z,7.50
2018-12-26T21:42:18.079Z,7.60
2018-12-26T21:44:59.721Z,7.60
2018-12-26T21:47:40.624Z,7.60
2018-12-26T21:50:21.327Z,7.70
2018-12-26T21:53:02.073Z,7.60
2018-12-26T21:55:44.152Z,7.60
2018-12-26T21:58:23.483Z,7.60
2018-12-26T22:01:04.168Z,7.60
2018-12-26T22:03:45.382Z,7.60
2018-12-26T22:06:26.286Z,7.60
2018-12-26T22:09:06.997Z,7.60
2018-12-26T22:11:47.619Z,7.70
2018-12-26T22:14:28.540Z,7.70
2018-12-26T22:17:09.281Z,7.70
2018-12-26T22:19:49.887Z,7.60
2018-12-26T22:22:30.613Z,7.60
2018-12-26T22:25:11.213Z,7.60
2018-12-26T22:27:52.273Z,7.70
2018-12-26T22:30:33.137Z,7.70
2018-12-26T22:33:13.685Z,7.70
2018-12-26T22:35:54.691Z,7.70
2018-12-26T22:38:35.322Z,7.70
2018-12-26T22:41:15.928Z,7.70
2018-12-26T22:43:56.657Z,7.60
2018-12-26T22:46:37.391Z,7.70
2018-12-26T22:49:18.309Z,7.70
2018-12-26T22:51:59.282Z,7.60
2018-12-26T22:54:40.011Z,7.60
2018-12-26T22:57:20.843Z,7.60
2018-12-26T23:00:01.852Z,7.60
2018-12-26T23:02:42.284Z,7.50
2018-12-26T23:05:25.260Z,7.50
2018-12-26T23:08:04.783Z,7.50
2018-12-26T23:10:52.895Z,7.60
2018-12-26T23:13:34.197Z,7.60
2018-12-26T23:16:14.969Z,7.60
2018-12-26T23:18:55.827Z,7.50
2018-12-26T23:21:36.471Z,7.50
2018-12-26T23:24:17.237Z,7.50
2018-12-26T23:26:58.144Z,7.50
2018-12-26T23:29:39.133Z,7.40
2018-12-26T23:32:19.558Z,7.40
2018-12-26T23:35:00.441Z,7.50
2018-12-26T23:37:41.839Z,7.40
2018-12-26T23:40:23.264Z,7.30
2018-12-26T23:43:03.960Z,7.30
2018-12-26T23:45:44.678Z,7.40
2018-12-26T23:48:25.203Z,7.30
2018-12-26T23:51:05.766Z,7.30
2018-12-26T23:53:46.230Z,7.40
2018-12-26T23:56:27.543Z,7.30
2018-12-26T23:59:08.081Z,7.30
